createdAt,value
2022-11-05T00:00:49.217Z,1236
2022-11-05T00:01:49.970Z,1236
2022-11-05T00:02:50.707Z,1236
2022-11-05T00:03:51.971Z,1236
2022-11-05T00:04:52.568Z,1236
2022-11-05T00:05:53.175Z,1236
2022-11-05T00:06:53.682Z,1236
2022-11-05T00:07:54.212Z,1236
2022-11-05T00:08:54.858Z,1236
2022-11-05T00:10:26.849Z,1236
2022-11-05T00:11:27.410Z,1236
2022-11-05T00:12:28.046Z,1236
2022-11-05T00:13:28.586Z,1236
2022-11-05T00:14:29.180Z,1236
2022-11-05T00:15:30.028Z,1236
2022-11-05T00:16:30.527Z,1236
2022-11-05T00:17:31.096Z,1236
2022-11-05T00:18:32.426Z,1236
2022-11-05T00:19:33.947Z,1236
2022-11-05T00:20:34.700Z,1236
2022-11-05T00:21:35.173Z,1236
2022-11-05T00:22:35.619Z,1236
2022-11-05T00:23:36.253Z,1236
2022-11-05T00:24:37.054Z,1236
2022-11-05T00:25:37.847Z,1236
2022-11-05T00:26:38.675Z,1236
2022-11-05T00:27:39.150Z,1236
2022-11-05T00:28:39.919Z,1236
2022-11-05T00:29:41.006Z,1236
2022-11-05T00:30:41.582Z,1236
2022-11-05T00:31:42.190Z,1236
2022-11-05T00:32:42.683Z,1236
2022-11-05T00:33:43.845Z,1236
2022-11-05T00:34:44.796Z,1236
2022-11-05T00:35:45.436Z,1236
2022-11-05T00:36:46.125Z,1236
2022-11-05T00:37:50.107Z,1236
2022-11-05T00:38:47.936Z,1236
2022-11-05T00:39:48.535Z,1236
2022-11-05T00:40:49.956Z,1236
2022-11-05T00:41:50.660Z,1236
2022-11-05T00:42:51.393Z,1236
2022-11-05T00:43:51.951Z,1236
2022-11-05T00:44:52.431Z,1236
2022-11-05T00:45:53.139Z,1236
2022-11-05T00:46:58.765Z,1236
2022-11-05T00:47:54.385Z,1236
2022-11-05T00:48:55.182Z,1236
2022-11-05T00:50:27.377Z,1236
2022-11-05T00:51:28.147Z,1236
2022-11-05T00:52:28.683Z,1236
2022-11-05T00:53:29.272Z,1236
2022-11-05T00:54:29.968Z,1236
2022-11-05T00:55:30.386Z,1236
2022-11-05T00:56:31.589Z,1236
2022-11-05T00:57:32.382Z,1236
2022-11-05T00:58:32.958Z,1236
2022-11-05T00:59:33.495Z,1236
2022-11-05T01:00:34.250Z,1236
2022-11-05T01:01:36.073Z,1236
2022-11-05T01:02:36.916Z,1236
2022-11-05T01:03:37.352Z,1236
2022-11-05T01:04:37.954Z,1236
2022-11-05T01:05:38.510Z,1236
2022-11-05T01:06:39.158Z,1236
2022-11-05T01:07:39.900Z,1236
2022-11-05T01:08:40.605Z,1236
2022-11-05T01:09:41.981Z,1236
2022-11-05T01:10:42.738Z,1236
2022-11-05T01:11:44.102Z,1236
2022-11-05T01:12:45.288Z,1236
2022-11-05T01:13:47.152Z,1236
2022-11-05T01:14:48.215Z,1236
2022-11-05T01:15:48.852Z,1236
2022-11-05T01:16:49.592Z,1236
2022-11-05T01:17:50.721Z,1236
2022-11-05T01:18:52.762Z,1236
2022-11-05T01:19:54.409Z,1236
2022-11-05T01:20:55.319Z,1236
2022-11-05T01:22:27.542Z,1236
2022-11-05T01:23:28.078Z,1236
2022-11-05T01:24:29.339Z,1236
2022-11-05T01:25:29.838Z,1236
2022-11-05T01:26:30.315Z,1236
2022-11-05T01:27:31.077Z,1236
2022-11-05T01:28:31.749Z,1236
2022-11-05T01:29:32.345Z,1236
2022-11-05T01:30:33.655Z,1236
2022-11-05T01:31:34.064Z,1236
2022-11-05T01:32:34.814Z,1236
2022-11-05T01:33:35.624Z,1236
2022-11-05T01:34:36.152Z,1236
2022-11-05T01:35:36.863Z,1236
2022-11-05T01:36:37.277Z,1236
2022-11-05T01:37:37.793Z,1236
2022-11-05T01:38:38.618Z,1236
2022-11-05T01:39:39.193Z,1236
2022-11-05T01:40:40.769Z,1236
2022-11-05T01:41:41.449Z,1236
2022-11-05T01:42:41.970Z,1236
2022-11-05T01:43:42.557Z,1236
2022-11-05T01:44:43.177Z,1236
2022-11-05T01:45:43.795Z,1236
2022-11-05T01:46:44.509Z,1236
2022-11-05T01:47:44.966Z,1236
2022-11-05T01:48:45.511Z,1236
2022-11-05T01:49:46.900Z,1236
2022-11-05T01:50:48.256Z,1236
2022-11-05T01:51:48.776Z,1236
2022-11-05T01:52:49.288Z,1236
2022-11-05T01:53:49.758Z,1236
2022-11-05T01:54:50.754Z,1236
2022-11-05T01:55:51.331Z,1236
2022-11-05T01:56:51.889Z,1236
2022-11-05T01:57:52.466Z,1236
2022-11-05T01:58:52.940Z,1236
2022-11-05T01:59:54.044Z,1236
2022-11-05T02:01:26.476Z,1236
2022-11-05T02:02:26.882Z,1236
2022-11-05T02:03:27.302Z,1236
2022-11-05T02:04:27.741Z,1236
2022-11-05T02:05:28.218Z,1236
2022-11-05T02:06:29.162Z,1236
2022-11-05T02:07:29.691Z,1236
2022-11-05T02:08:30.249Z,1236
2022-11-05T02:09:30.900Z,1236
2022-11-05T02:10:32.198Z,1236
2022-11-05T02:11:32.825Z,1236
2022-11-05T02:12:33.412Z,1236
2022-11-05T02:13:33.969Z,1236
2022-11-05T02:14:34.552Z,1236
2022-11-05T02:15:36.000Z,1236
2022-11-05T02:16:36.880Z,1236
2022-11-05T02:17:37.372Z,1236
2022-11-05T02:18:38.445Z,1236
2022-11-05T02:19:39.127Z,1236
2022-11-05T02:20:40.123Z,1236
2022-11-05T02:21:40.616Z,1236
2022-11-05T02:22:41.218Z,1236
2022-11-05T02:23:41.749Z,1236
2022-11-05T02:24:42.446Z,1236
2022-11-05T02:25:42.886Z,1236
2022-11-05T02:26:43.473Z,1236
2022-11-05T02:27:44.139Z,1236
2022-11-05T02:28:44.684Z,1236
2022-11-05T02:29:45.323Z,1236
2022-11-05T02:30:46.858Z,1236
2022-11-05T02:31:47.412Z,1236
2022-11-05T02:32:47.865Z,1236
2022-11-05T02:33:48.552Z,1236
2022-11-05T02:34:49.136Z,1236
2022-11-05T02:35:49.636Z,1236
2022-11-05T02:36:50.093Z,1236
2022-11-05T02:37:50.855Z,1236
2022-11-05T02:38:51.370Z,1236
2022-11-05T02:39:51.895Z,1236
2022-11-05T02:40:53.192Z,1236
2022-11-05T02:41:53.705Z,1236
2022-11-05T02:43:24.794Z,1236
2022-11-05T02:44:25.553Z,1236
2022-11-05T02:45:26.089Z,1236
2022-11-05T02:46:26.583Z,1236
2022-11-05T02:47:27.152Z,1236
2022-11-05T02:48:27.713Z,1236
2022-11-05T02:49:28.386Z,1236
2022-11-05T02:50:28.913Z,1236
2022-11-05T02:51:29.969Z,1236
2022-11-05T02:52:30.542Z,1236
2022-11-05T02:53:30.925Z,1236
2022-11-05T02:54:31.340Z,1236
2022-11-05T02:55:31.928Z,1236
2022-11-05T02:56:32.409Z,1236
2022-11-05T02:57:32.968Z,1236
2022-11-05T02:58:33.413Z,1236
2022-11-05T02:59:33.834Z,1236
2022-11-05T03:00:34.467Z,1236
2022-11-05T03:01:35.746Z,1236
2022-11-05T03:02:36.332Z,1236
2022-11-05T03:03:36.675Z,1236
2022-11-05T03:04:37.205Z,1236
2022-11-05T03:05:37.725Z,1236
2022-11-05T03:06:38.263Z,1236
2022-11-05T03:07:38.768Z,1236
2022-11-05T03:08:39.328Z,1236
2022-11-05T03:09:39.731Z,1236
2022-11-05T03:10:40.935Z,1236
2022-11-05T03:11:41.544Z,1236
2022-11-05T03:12:42.045Z,1236
2022-11-05T03:13:42.570Z,1236
2022-11-05T03:14:43.033Z,1236
2022-11-05T03:15:43.432Z,1236
2022-11-05T03:16:43.975Z,1236
2022-11-05T03:17:44.665Z,1236
2022-11-05T03:18:45.126Z,1236
2022-11-05T03:19:45.627Z,1236
2022-11-05T03:20:46.899Z,1236
2022-11-05T03:21:47.307Z,1236
2022-11-05T03:22:47.873Z,1236
2022-11-05T03:23:48.336Z,1236
2022-11-05T03:24:48.835Z,1236
2022-11-05T03:25:49.437Z,1236
2022-11-05T03:26:49.846Z,1236
2022-11-05T03:27:50.531Z,1236
2022-11-05T03:28:51.098Z,1236
2022-11-05T03:29:51.584Z,1236
2022-11-05T03:30:52.896Z,1236
2022-11-05T03:32:23.927Z,1236
2022-11-05T03:33:24.612Z,1236
2022-11-05T03:34:25.102Z,1236
2022-11-05T03:35:25.604Z,1236
2022-11-05T03:36:26.111Z,1236
2022-11-05T03:37:26.514Z,1236
2022-11-05T03:38:27.024Z,1236
2022-11-05T03:39:27.634Z,1236
2022-11-05T03:40:28.167Z,1236
2022-11-05T03:41:28.622Z,1236
2022-11-05T03:42:29.143Z,1236
2022-11-05T03:43:29.738Z,1236
2022-11-05T03:44:30.350Z,1236
2022-11-05T03:45:30.898Z,1236
2022-11-05T03:46:31.371Z,1236
2022-11-05T03:47:31.921Z,1236
2022-11-05T03:48:32.443Z,1236
2022-11-05T03:49:33.418Z,1236
2022-11-05T03:50:40.062Z,1236
2022-11-05T03:51:35.142Z,1236
2022-11-05T03:52:35.603Z,1236
2022-11-05T03:53:36.149Z,1236
2022-11-05T03:54:36.628Z,1236
2022-11-05T03:55:37.149Z,1236
2022-11-05T03:56:37.702Z,1236
2022-11-05T03:57:38.225Z,1236
2022-11-05T03:58:38.664Z,1236
2022-11-05T03:59:39.142Z,1236
2022-11-05T04:00:39.676Z,1236
2022-11-05T04:01:41.387Z,1236
2022-11-05T04:02:41.945Z,1236
2022-11-05T04:03:42.285Z,1236
2022-11-05T04:04:42.815Z,1236
2022-11-05T04:05:43.225Z,1236
2022-11-05T04:06:43.842Z,1236
2022-11-05T04:07:44.348Z,1236
2022-11-05T04:08:44.818Z,1236
2022-11-05T04:09:45.333Z,1236
2022-11-05T04:10:46.443Z,1236
2022-11-05T04:11:47.145Z,1236
2022-11-05T04:12:47.694Z,1236
2022-11-05T04:13:48.170Z,1236
2022-11-05T04:14:48.647Z,1236
2022-11-05T04:15:49.185Z,1236
2022-11-05T04:16:49.746Z,1236
2022-11-05T04:17:50.526Z,1236
2022-11-05T04:18:51.132Z,1236
2022-11-05T04:19:51.571Z,1236
2022-11-05T04:20:53.044Z,1236
2022-11-05T04:22:24.446Z,1236
2022-11-05T04:23:25.082Z,1236
2022-11-05T04:24:25.536Z,1236
2022-11-05T04:25:26.026Z,1236
2022-11-05T04:26:26.429Z,1236
2022-11-05T04:27:26.869Z,1236
2022-11-05T04:28:27.569Z,1236
2022-11-05T04:29:28.135Z,1236
2022-11-05T04:30:28.560Z,1236
2022-11-05T04:31:29.740Z,1236
2022-11-05T04:32:30.185Z,1236
2022-11-05T04:33:30.707Z,1236
2022-11-05T04:34:31.255Z,1236
2022-11-05T04:35:31.721Z,1236
2022-11-05T04:36:32.157Z,1236
2022-11-05T04:37:32.656Z,1236
2022-11-05T04:38:33.115Z,1236
2022-11-05T04:39:33.657Z,1236
2022-11-05T04:40:34.118Z,1236
2022-11-05T04:41:35.192Z,1236
2022-11-05T04:42:35.737Z,1236
2022-11-05T04:43:36.147Z,1236
2022-11-05T04:44:36.688Z,1236
2022-11-05T04:45:37.151Z,1236
2022-11-05T04:46:37.637Z,1236
2022-11-05T04:47:38.155Z,1236
2022-11-05T04:48:38.636Z,1236
2022-11-05T04:49:39.997Z,1236
2022-11-05T04:50:40.667Z,1236
2022-11-05T04:51:41.715Z,1236
2022-11-05T04:52:42.186Z,1236
2022-11-05T04:53:42.715Z,1236
2022-11-05T04:54:43.296Z,1236
2022-11-05T04:55:43.758Z,1236
2022-11-05T04:56:44.354Z,1236
2022-11-05T04:57:44.901Z,1236
2022-11-05T04:58:45.311Z,1236
2022-11-05T04:59:45.939Z,1236
2022-11-05T05:00:46.495Z,1236
2022-11-05T05:01:47.831Z,1236
2022-11-05T05:02:48.369Z,1236
2022-11-05T05:03:48.813Z,1236
2022-11-05T05:04:49.316Z,1236
2022-11-05T05:05:52.956Z,1236
2022-11-05T05:07:20.582Z,1236
2022-11-05T05:08:51.405Z,1236
2022-11-05T05:09:51.902Z,1236
2022-11-05T05:11:23.682Z,1236
2022-11-05T05:12:25.349Z,1236
2022-11-05T05:13:25.847Z,1236
2022-11-05T05:14:26.402Z,1236
2022-11-05T05:15:26.845Z,1236
2022-11-05T05:16:27.277Z,1236
2022-11-05T05:17:27.868Z,1236
2022-11-05T05:18:28.377Z,1236
2022-11-05T05:19:28.883Z,1236
2022-11-05T05:20:30.143Z,1236
2022-11-05T05:21:31.419Z,1236
2022-11-05T05:22:31.947Z,1236
2022-11-05T05:23:32.602Z,1236
2022-11-05T05:24:33.085Z,1236
2022-11-05T05:25:33.603Z,1236
2022-11-05T05:26:34.113Z,1236
2022-11-05T05:27:34.524Z,1236
2022-11-05T05:28:35.029Z,1236
2022-11-05T05:29:35.593Z,1236
2022-11-05T05:30:36.093Z,1236
2022-11-05T05:31:37.452Z,1236
2022-11-05T05:32:37.968Z,1236
2022-11-05T05:33:38.450Z,1236
2022-11-05T05:34:38.947Z,1236
2022-11-05T05:35:39.635Z,1236
2022-11-05T05:36:40.094Z,1236
2022-11-05T05:37:40.501Z,1236
2022-11-05T05:38:41.017Z,1236
2022-11-05T05:39:41.676Z,1236
2022-11-05T05:40:42.972Z,1236
2022-11-05T05:41:43.521Z,1236
2022-11-05T05:42:44.908Z,1236
2022-11-05T05:43:45.400Z,1236
2022-11-05T05:44:45.925Z,1236
2022-11-05T05:45:46.397Z,1236
2022-11-05T05:46:46.902Z,1236
2022-11-05T05:47:47.344Z,1236
2022-11-05T05:48:47.785Z,1236
2022-11-05T05:49:48.337Z,1236
2022-11-05T05:50:48.904Z,1236
2022-11-05T05:51:50.528Z,1236
2022-11-05T05:52:50.991Z,1236
2022-11-05T05:53:51.890Z,1236
2022-11-05T05:55:22.509Z,1236
2022-11-05T05:56:23.809Z,1236
2022-11-05T05:57:24.291Z,1236
2022-11-05T05:58:24.728Z,1236
2022-11-05T05:59:25.201Z,1236
2022-11-05T06:00:26.408Z,1236
2022-11-05T06:01:27.067Z,1236
2022-11-05T06:02:28.396Z,1236
2022-11-05T06:03:28.782Z,1236
2022-11-05T06:04:29.192Z,4
2022-11-05T06:05:29.671Z,0
2022-11-05T06:06:30.239Z,0
2022-11-05T06:07:34.526Z,4
2022-11-05T06:08:31.237Z,0
2022-11-05T06:09:31.665Z,4
2022-11-05T06:10:32.211Z,8
2022-11-05T06:11:33.536Z,4
2022-11-05T06:12:33.972Z,8
2022-11-05T06:13:34.453Z,8
2022-11-05T06:14:34.965Z,8
2022-11-05T06:15:36.222Z,8
2022-11-05T06:16:35.915Z,8
2022-11-05T06:17:36.433Z,8
2022-11-05T06:18:36.921Z,8
2022-11-05T06:19:37.455Z,8
2022-11-05T06:20:38.022Z,8
2022-11-05T06:21:39.451Z,12
2022-11-05T06:22:39.959Z,8
2022-11-05T06:23:40.453Z,8
2022-11-05T06:24:41.959Z,12
2022-11-05T06:25:42.369Z,12
2022-11-05T06:26:42.991Z,12
2022-11-05T06:27:43.523Z,8
2022-11-05T06:28:44.121Z,12
2022-11-05T06:29:44.601Z,8
2022-11-05T06:30:45.095Z,12
2022-11-05T06:31:46.417Z,12
2022-11-05T06:32:46.844Z,16
2022-11-05T06:33:47.450Z,16
2022-11-05T06:34:47.903Z,20
2022-11-05T06:35:48.469Z,20
2022-11-05T06:36:48.927Z,20
2022-11-05T06:37:49.370Z,24
2022-11-05T06:38:49.964Z,32
2022-11-05T06:39:50.535Z,36
2022-11-05T06:41:21.832Z,36
2022-11-05T06:42:23.195Z,36
2022-11-05T06:43:23.759Z,36
2022-11-05T06:44:24.452Z,36
2022-11-05T06:45:25.167Z,36
2022-11-05T06:46:25.762Z,36
2022-11-05T06:47:26.343Z,44
2022-11-05T06:48:26.853Z,48
2022-11-05T06:49:27.428Z,52
2022-11-05T06:50:28.994Z,56
2022-11-05T06:51:29.506Z,68
2022-11-05T06:52:30.660Z,72
2022-11-05T06:53:31.268Z,76
2022-11-05T06:54:31.931Z,80
2022-11-05T06:55:32.733Z,80
2022-11-05T06:56:33.521Z,80
2022-11-05T06:57:34.196Z,76
2022-11-05T06:58:34.862Z,80
2022-11-05T06:59:35.668Z,80
2022-11-05T07:00:36.325Z,80
2022-11-05T07:01:37.075Z,80
2022-11-05T07:02:38.255Z,80
2022-11-05T07:03:38.728Z,80
2022-11-05T07:04:39.252Z,84
2022-11-05T07:05:39.934Z,84
2022-11-05T07:06:40.769Z,88
2022-11-05T07:07:41.482Z,92
2022-11-05T07:08:42.318Z,96
2022-11-05T07:09:43.001Z,100
2022-11-05T07:10:43.702Z,92
2022-11-05T07:11:44.585Z,88
2022-11-05T07:12:45.879Z,80
2022-11-05T07:13:46.359Z,76
2022-11-05T07:14:46.877Z,80
2022-11-05T07:15:47.562Z,80
2022-11-05T07:16:48.126Z,84
2022-11-05T07:17:48.819Z,88
2022-11-05T07:18:49.357Z,92
2022-11-05T07:19:49.788Z,84
2022-11-05T07:21:21.705Z,80
2022-11-05T07:22:23.011Z,88
2022-11-05T07:23:23.585Z,100
2022-11-05T07:24:24.159Z,112
2022-11-05T07:25:24.620Z,120
2022-11-05T07:26:25.148Z,124
2022-11-05T07:27:25.630Z,136
2022-11-05T07:28:26.268Z,144
2022-11-05T07:29:26.860Z,156
2022-11-05T07:30:27.524Z,168
2022-11-05T07:31:28.414Z,184
2022-11-05T07:32:29.458Z,204
2022-11-05T07:33:35.253Z,208
2022-11-05T07:34:30.515Z,220
2022-11-05T07:35:31.032Z,232
2022-11-05T07:36:31.457Z,236
2022-11-05T07:37:31.905Z,244
2022-11-05T07:38:32.448Z,260
2022-11-05T07:39:32.939Z,280
2022-11-05T07:40:34.440Z,300
2022-11-05T07:41:34.904Z,320
2022-11-05T07:42:35.459Z,328
2022-11-05T07:43:36.045Z,316
2022-11-05T07:44:36.520Z,332
2022-11-05T07:45:37.081Z,352
2022-11-05T07:46:37.608Z,376
2022-11-05T07:47:38.017Z,412
2022-11-05T07:48:38.586Z,468
2022-11-05T07:49:39.213Z,492
2022-11-05T07:50:39.714Z,524
2022-11-05T07:51:40.169Z,548
2022-11-05T07:52:41.409Z,572
2022-11-05T07:53:45.289Z,584
2022-11-05T07:54:42.440Z,604
2022-11-05T07:55:42.958Z,600
2022-11-05T07:56:43.426Z,608
2022-11-05T07:57:43.933Z,616
2022-11-05T07:58:44.447Z,620
2022-11-05T07:59:44.826Z,640
2022-11-05T08:00:45.556Z,656
2022-11-05T08:01:46.280Z,660
2022-11-05T08:02:47.490Z,636
2022-11-05T08:03:47.934Z,612
2022-11-05T08:04:48.217Z,548
2022-11-05T08:05:50.395Z,464
2022-11-05T08:07:21.213Z,452
2022-11-05T08:08:21.771Z,452
2022-11-05T08:09:22.256Z,460
2022-11-05T08:10:22.649Z,472
2022-11-05T08:11:23.122Z,488
2022-11-05T08:12:24.434Z,500
2022-11-05T08:13:24.948Z,472
2022-11-05T08:14:25.535Z,444
2022-11-05T08:15:26.014Z,416
2022-11-05T08:16:26.439Z,404
2022-11-05T08:17:27.206Z,384
2022-11-05T08:18:27.574Z,396
2022-11-05T08:19:28.115Z,428
2022-11-05T08:20:28.557Z,424
2022-11-05T08:21:29.620Z,412
2022-11-05T08:22:30.938Z,420
2022-11-05T08:23:31.634Z,444
2022-11-05T08:24:32.203Z,472
2022-11-05T08:25:32.626Z,480
2022-11-05T08:26:33.153Z,488
2022-11-05T08:27:33.784Z,484
2022-11-05T08:28:34.242Z,492
2022-11-05T08:29:34.813Z,488
2022-11-05T08:30:35.298Z,468
2022-11-05T08:31:35.712Z,424
2022-11-05T08:32:36.935Z,396
2022-11-05T08:33:37.588Z,376
2022-11-05T08:34:38.244Z,368
2022-11-05T08:35:38.967Z,372
2022-11-05T08:36:39.706Z,372
2022-11-05T08:37:40.303Z,380
2022-11-05T08:38:41.746Z,400
2022-11-05T08:39:42.635Z,416
2022-11-05T08:40:43.028Z,436
2022-11-05T08:41:43.611Z,456
2022-11-05T08:42:45.047Z,472
2022-11-05T08:43:45.541Z,488
2022-11-05T08:44:46.199Z,500
2022-11-05T08:45:46.844Z,520
2022-11-05T08:46:47.293Z,536
2022-11-05T08:47:47.746Z,544
2022-11-05T08:48:48.367Z,552
2022-11-05T08:49:48.852Z,592
2022-11-05T08:51:20.066Z,624
2022-11-05T08:52:20.747Z,648
2022-11-05T08:53:22.309Z,676
2022-11-05T08:54:22.824Z,712
2022-11-05T08:55:24.009Z,752
2022-11-05T08:56:24.701Z,780
2022-11-05T08:57:25.162Z,792
2022-11-05T08:58:25.641Z,800
2022-11-05T08:59:26.226Z,808
2022-11-05T09:00:26.995Z,792
2022-11-05T09:01:27.799Z,768
2022-11-05T09:02:29.038Z,724
2022-11-05T09:03:30.516Z,680
2022-11-05T09:04:31.232Z,664
2022-11-05T09:05:32.126Z,660
2022-11-05T09:06:32.724Z,656
2022-11-05T09:07:33.340Z,656
2022-11-05T09:08:33.878Z,640
2022-11-05T09:09:34.378Z,628
2022-11-05T09:10:35.113Z,628
2022-11-05T09:12:05.281Z,632
2022-11-05T09:12:36.989Z,644
2022-11-05T09:13:37.606Z,656
2022-11-05T09:14:38.638Z,668
2022-11-05T09:15:39.157Z,668
2022-11-05T09:16:39.724Z,680
2022-11-05T09:17:40.295Z,688
2022-11-05T09:18:40.747Z,688
2022-11-05T09:19:41.349Z,688
2022-11-05T09:20:41.897Z,680
2022-11-05T09:21:42.407Z,672
2022-11-05T09:22:43.944Z,664
2022-11-05T09:23:44.473Z,656
2022-11-05T09:24:44.979Z,664
2022-11-05T09:25:45.441Z,660
2022-11-05T09:26:45.917Z,668
2022-11-05T09:27:46.463Z,684
2022-11-05T09:28:46.968Z,696
2022-11-05T09:29:47.524Z,708
2022-11-05T09:30:48.040Z,696
2022-11-05T09:31:48.480Z,724
2022-11-05T09:33:20.216Z,788
2022-11-05T09:34:20.812Z,760
2022-11-05T09:35:21.343Z,724
2022-11-05T09:36:21.829Z,728
2022-11-05T09:37:22.280Z,820
2022-11-05T09:38:23.065Z,832
2022-11-05T09:39:23.688Z,832
2022-11-05T09:40:24.258Z,836
2022-11-05T09:41:24.755Z,836
2022-11-05T09:42:25.163Z,828
2022-11-05T09:43:31.477Z,836
2022-11-05T09:44:26.884Z,848
2022-11-05T09:45:27.381Z,876
2022-11-05T09:46:27.964Z,912
2022-11-05T09:47:28.360Z,984
2022-11-05T09:48:28.872Z,1064
2022-11-05T09:49:29.491Z,1124
2022-11-05T09:50:29.976Z,1160
2022-11-05T09:51:31.443Z,1136
2022-11-05T09:52:31.992Z,1068
2022-11-05T09:53:33.208Z,1056
2022-11-05T09:54:33.864Z,1012
2022-11-05T09:55:34.378Z,976
2022-11-05T09:56:34.933Z,1008
2022-11-05T09:57:35.508Z,1016
2022-11-05T09:58:36.244Z,1016
2022-11-05T09:59:36.819Z,1000
2022-11-05T10:00:37.316Z,988
2022-11-05T10:01:38.148Z,992
2022-11-05T10:02:38.449Z,992
2022-11-05T10:03:38.830Z,1004
2022-11-05T10:04:40.285Z,1012
2022-11-05T10:05:41.070Z,1052
2022-11-05T10:06:41.588Z,1080
2022-11-05T10:07:42.040Z,1096
2022-11-05T10:08:42.604Z,1100
2022-11-05T10:09:43.137Z,1108
2022-11-05T10:10:43.641Z,1104
2022-11-05T10:11:44.216Z,1096
2022-11-05T10:12:44.808Z,1080
2022-11-05T10:13:45.369Z,1068
2022-11-05T10:14:46.737Z,1056
2022-11-05T10:15:47.283Z,1024
2022-11-05T10:16:47.847Z,920
2022-11-05T10:18:18.911Z,828
2022-11-05T10:19:19.389Z,752
2022-11-05T10:20:19.912Z,692
2022-11-05T10:21:37.732Z,648
2022-11-05T10:22:21.255Z,616
2022-11-05T10:23:22.689Z,624
2022-11-05T10:24:24.303Z,636
2022-11-05T10:25:24.850Z,652
2022-11-05T10:26:25.588Z,660
2022-11-05T10:27:26.177Z,652
2022-11-05T10:28:26.609Z,668
2022-11-05T10:29:27.118Z,688
2022-11-05T10:30:27.579Z,688
2022-11-05T10:31:32.853Z,684
2022-11-05T10:32:29.454Z,684
2022-11-05T10:33:30.945Z,668
2022-11-05T10:34:31.587Z,668
2022-11-05T10:35:32.206Z,668
2022-11-05T10:36:32.774Z,692
2022-11-05T10:37:36.969Z,732
2022-11-05T10:38:34.207Z,756
2022-11-05T10:39:35.098Z,776
2022-11-05T10:40:35.748Z,796
2022-11-05T10:41:36.447Z,812
2022-11-05T10:42:37.124Z,836
2022-11-05T10:43:38.547Z,884
2022-11-05T10:44:39.247Z,896
2022-11-05T10:45:39.933Z,1016
2022-11-05T10:46:40.532Z,1044
2022-11-05T10:47:41.242Z,1040
2022-11-05T10:48:43.840Z,1140
2022-11-05T10:49:42.488Z,1180
2022-11-05T10:50:43.038Z,1064
2022-11-05T10:51:44.480Z,1192
2022-11-05T10:52:45.254Z,1220
2022-11-05T10:53:46.533Z,1188
2022-11-05T10:54:47.196Z,1224
2022-11-05T10:56:18.549Z,1128
2022-11-05T10:57:19.451Z,1228
2022-11-05T10:58:20.932Z,1268
2022-11-05T10:59:21.586Z,1300
2022-11-05T11:00:22.975Z,1368
2022-11-05T11:01:23.995Z,1476
2022-11-05T11:02:24.669Z,1512
2022-11-05T11:03:25.400Z,1444
2022-11-05T11:04:26.914Z,1556
2022-11-05T11:05:27.721Z,1600
2022-11-05T11:06:28.464Z,1664
2022-11-05T11:07:29.095Z,1768
2022-11-05T11:08:29.660Z,1908
2022-11-05T11:09:30.366Z,1928
2022-11-05T11:10:31.125Z,1900
2022-11-05T11:11:31.825Z,1904
2022-11-05T11:12:35.691Z,1744
2022-11-05T11:13:33.467Z,1552
2022-11-05T11:14:34.043Z,1624
2022-11-05T11:15:34.531Z,1504
2022-11-05T11:16:35.167Z,1180
2022-11-05T11:17:35.693Z,1112
2022-11-05T11:18:39.845Z,1044
2022-11-05T11:19:36.960Z,892
2022-11-05T11:20:37.529Z,692
2022-11-05T11:21:38.956Z,632
2022-11-05T11:22:39.533Z,568
2022-11-05T11:23:40.986Z,528
2022-11-05T11:24:41.545Z,500
2022-11-05T11:25:42.091Z,496
2022-11-05T11:26:42.540Z,444
2022-11-05T11:27:43.050Z,428
2022-11-05T11:28:43.657Z,420
2022-11-05T11:29:49.092Z,412
2022-11-05T11:30:44.760Z,404
2022-11-05T11:31:45.369Z,416
2022-11-05T11:32:46.127Z,424
2022-11-05T11:33:47.567Z,468
2022-11-05T11:35:18.606Z,516
2022-11-05T11:36:19.192Z,544
2022-11-05T11:37:19.902Z,588
2022-11-05T11:38:20.995Z,608
2022-11-05T11:39:21.826Z,656
2022-11-05T11:40:22.624Z,672
2022-11-05T11:41:23.142Z,740
2022-11-05T11:42:23.739Z,776
2022-11-05T11:43:24.357Z,772
2022-11-05T11:44:25.947Z,752
2022-11-05T11:45:26.840Z,764
2022-11-05T11:46:27.671Z,744
2022-11-05T11:47:28.436Z,764
2022-11-05T11:48:29.275Z,800
2022-11-05T11:49:29.945Z,824
2022-11-05T11:50:30.479Z,836
2022-11-05T11:51:31.177Z,840
2022-11-05T11:52:31.809Z,824
2022-11-05T11:53:32.623Z,800
2022-11-05T11:54:34.192Z,780
2022-11-05T11:55:35.006Z,808
2022-11-05T11:56:35.663Z,852
2022-11-05T11:57:36.365Z,844
2022-11-05T11:58:37.167Z,820
2022-11-05T12:00:06.677Z,872
2022-11-05T12:00:38.344Z,1012
2022-11-05T12:01:38.855Z,1208
2022-11-05T12:02:39.548Z,1236
2022-11-05T12:03:40.124Z,1052
2022-11-05T12:04:41.237Z,1064
2022-11-05T12:05:41.853Z,1036
2022-11-05T12:06:42.367Z,1040
2022-11-05T12:07:42.921Z,1028
2022-11-05T12:08:45.782Z,1020
2022-11-05T12:09:44.006Z,980
2022-11-05T12:10:44.566Z,976
2022-11-05T12:11:45.074Z,976
2022-11-05T12:12:45.740Z,1024
2022-11-05T12:13:46.501Z,1176
2022-11-05T12:15:18.172Z,1188
2022-11-05T12:16:18.727Z,1220
2022-11-05T12:17:19.378Z,1200
2022-11-05T12:18:20.075Z,1224
2022-11-05T12:19:20.919Z,1200
2022-11-05T12:20:21.539Z,1132
2022-11-05T12:21:41.031Z,1004
2022-11-05T12:22:23.459Z,988
2022-11-05T12:23:24.191Z,1052
2022-11-05T12:24:25.912Z,988
2022-11-05T12:25:26.679Z,912
2022-11-05T12:26:27.748Z,888
2022-11-05T12:27:28.311Z,876
2022-11-05T12:28:28.926Z,864
2022-11-05T12:29:35.357Z,852
2022-11-05T12:30:30.163Z,836
2022-11-05T12:31:30.739Z,812
2022-11-05T12:32:31.763Z,808
2022-11-05T12:33:32.551Z,796
2022-11-05T12:34:33.862Z,784
2022-11-05T12:35:34.644Z,756
2022-11-05T12:36:35.998Z,724
2022-11-05T12:37:36.685Z,700
2022-11-05T12:38:37.373Z,684
2022-11-05T12:39:38.460Z,668
2022-11-05T12:40:39.216Z,660
2022-11-05T12:41:39.980Z,660
2022-11-05T12:42:40.846Z,680
2022-11-05T12:43:41.490Z,712
2022-11-05T12:44:42.960Z,752
2022-11-05T12:45:43.623Z,760
2022-11-05T12:46:44.242Z,768
2022-11-05T12:47:44.843Z,788
2022-11-05T12:48:45.629Z,784
2022-11-05T12:49:46.631Z,752
2022-11-05T12:51:18.431Z,772
2022-11-05T12:52:20.021Z,796
2022-11-05T12:53:21.530Z,884
2022-11-05T12:54:23.059Z,980
2022-11-05T12:55:23.739Z,1104
2022-11-05T12:56:24.586Z,1188
2022-11-05T12:57:25.205Z,1224
2022-11-05T12:58:25.845Z,1252
2022-11-05T12:59:26.539Z,1276
2022-11-05T13:00:27.317Z,1336
2022-11-05T13:01:28.233Z,1360
2022-11-05T13:02:29.545Z,1316
2022-11-05T13:03:30.076Z,1188
2022-11-05T13:04:31.456Z,1004
2022-11-05T13:05:32.096Z,784
2022-11-05T13:06:32.716Z,780
2022-11-05T13:07:33.487Z,756
2022-11-05T13:08:34.053Z,744
2022-11-05T13:09:34.643Z,732
2022-11-05T13:10:35.232Z,688
2022-11-05T13:11:35.858Z,612
2022-11-05T13:12:36.511Z,564
2022-11-05T13:13:37.277Z,556
2022-11-05T13:14:38.834Z,560
2022-11-05T13:15:40.013Z,596
2022-11-05T13:16:40.728Z,640
2022-11-05T13:17:41.373Z,708
2022-11-05T13:18:42.032Z,792
2022-11-05T13:19:42.662Z,864
2022-11-05T13:20:43.568Z,924
2022-11-05T13:21:44.252Z,940
2022-11-05T13:22:46.303Z,696
2022-11-05T13:24:19.105Z,568
2022-11-05T13:25:19.640Z,592
2022-11-05T13:26:20.270Z,696
2022-11-05T13:27:21.104Z,708
2022-11-05T13:28:21.705Z,728
2022-11-05T13:29:22.398Z,800
2022-11-05T13:30:22.971Z,844
2022-11-05T13:31:23.553Z,780
2022-11-05T13:32:24.299Z,752
2022-11-05T13:33:24.924Z,720
2022-11-05T13:34:26.483Z,716
2022-11-05T13:35:27.166Z,748
2022-11-05T13:36:28.021Z,800
2022-11-05T13:37:28.796Z,1064
2022-11-05T13:38:29.359Z,1552
2022-11-05T13:39:29.972Z,1084
2022-11-05T13:40:30.707Z,756
2022-11-05T13:41:31.401Z,680
2022-11-05T13:42:32.349Z,632
2022-11-05T13:43:33.094Z,596
2022-11-05T13:44:34.494Z,560
2022-11-05T13:45:35.119Z,532
2022-11-05T13:46:35.866Z,504
2022-11-05T13:47:36.851Z,508
2022-11-05T13:48:37.746Z,520
2022-11-05T13:49:38.533Z,532
2022-11-05T13:50:39.225Z,548
2022-11-05T13:51:39.839Z,596
2022-11-05T13:52:41.574Z,696
2022-11-05T13:53:42.344Z,584
2022-11-05T13:54:44.006Z,464
2022-11-05T13:55:44.698Z,420